createdAt,value
2022-09-22T00:04:18.023Z,6.58
2022-09-22T00:09:17.918Z,6.62
2022-09-22T00:14:17.929Z,6.66
2022-09-22T00:19:17.867Z,6.66
2022-09-22T00:24:17.845Z,6.62
2022-09-22T00:29:17.687Z,6.58
2022-09-22T00:34:17.651Z,6.51
2022-09-22T00:39:17.659Z,6.43
2022-09-22T00:44:17.530Z,6.37
2022-09-22T00:49:17.444Z,6.34
2022-09-22T00:54:17.592Z,6.28
2022-09-22T00:59:19.447Z,6.21
2022-09-22T01:04:17.459Z,6.15
2022-09-22T01:09:17.389Z,6.09
2022-09-22T01:14:17.345Z,6.09
2022-09-22T01:19:17.154Z,6.03
2022-09-22T01:24:17.106Z,5.99
2022-09-22T01:29:17.035Z,5.97
2022-09-22T01:34:16.974Z,5.97
2022-09-22T01:39:16.988Z,5.97
2022-09-22T01:44:16.916Z,5.94
2022-09-22T01:49:16.876Z,5.93
2022-09-22T01:54:16.836Z,5.94
2022-09-22T01:59:16.721Z,5.93
2022-09-22T02:04:16.668Z,5.91
2022-09-22T02:09:16.613Z,5.91
2022-09-22T02:14:16.650Z,5.89
2022-09-22T02:19:16.496Z,5.85
2022-09-22T02:24:16.526Z,5.82
2022-09-22T02:29:16.395Z,5.85
2022-09-22T02:34:16.374Z,5.81
2022-09-22T02:39:16.323Z,5.79
2022-09-22T02:44:16.222Z,5.78
2022-09-22T02:49:16.234Z,5.75
2022-09-22T02:54:19.537Z,5.74
2022-09-22T02:59:16.187Z,5.74
2022-09-22T03:04:16.165Z,5.71
2022-09-22T03:09:15.985Z,5.65
2022-09-22T03:14:16.903Z,5.61
2022-09-22T03:19:15.866Z,5.60
2022-09-22T03:24:15.833Z,5.63
2022-09-22T03:29:15.747Z,5.61
2022-09-22T03:34:15.707Z,5.57
2022-09-22T03:39:15.728Z,5.54
2022-09-22T03:44:15.679Z,5.53
2022-09-22T03:49:15.613Z,5.53
2022-09-22T03:54:15.489Z,5.49
2022-09-22T03:59:15.424Z,5.46
2022-09-22T04:04:15.357Z,5.42
2022-09-22T04:09:16.494Z,5.39
2022-09-22T04:14:15.223Z,5.38
2022-09-22T04:19:15.240Z,5.33
2022-09-22T04:24:15.214Z,5.30
2022-09-22T04:29:18.678Z,5.25
2022-09-22T04:34:15.017Z,5.22
2022-09-22T04:39:17.436Z,5.22
2022-09-22T04:44:15.359Z,5.24
2022-09-22T04:49:15.262Z,5.24
2022-09-22T04:54:15.258Z,5.22
2022-09-22T04:59:16.059Z,5.21
2022-09-22T05:04:16.045Z,5.18
2022-09-22T05:09:17.182Z,5.17
2022-09-22T06:41:47.832Z,6.41
2022-09-22T06:46:47.903Z,6.56
2022-09-22T06:51:47.895Z,6.74
2022-09-22T06:56:47.842Z,6.97
2022-09-22T07:01:47.749Z,7.21
2022-09-22T07:06:47.684Z,7.63
2022-09-22T07:11:47.665Z,8.01
2022-09-22T07:16:47.678Z,8.36
2022-09-22T07:21:47.552Z,8.73
2022-09-22T07:26:47.346Z,9.26
2022-09-22T07:31:48.462Z,9.69
2022-09-22T07:36:47.301Z,10.20
2022-09-22T07:41:48.671Z,10.70
2022-09-22T07:46:47.253Z,11.22
2022-09-22T07:51:51.560Z,11.61
2022-09-22T07:56:47.220Z,11.98
2022-09-22T08:01:50.438Z,12.42
2022-09-22T08:06:48.323Z,12.83
2022-09-22T08:11:46.818Z,13.20
2022-09-22T08:16:46.798Z,13.60
2022-09-22T08:21:49.330Z,14.09
2022-09-22T08:26:49.417Z,14.58
2022-09-22T08:31:47.066Z,14.98
2022-09-22T08:36:46.935Z,15.50
2022-09-22T08:41:48.489Z,15.82
2022-09-22T08:46:46.512Z,16.04
2022-09-22T08:51:46.526Z,16.30
2022-09-22T08:56:54.448Z,16.52
2022-09-22T09:01:46.458Z,16.91
2022-09-22T09:06:47.490Z,17.18
2022-09-22T09:11:47.259Z,17.48
2022-09-22T09:16:46.160Z,17.71
2022-09-22T09:21:46.175Z,17.87
2022-09-22T09:26:46.075Z,18.14
2022-09-22T09:31:46.033Z,18.33
2022-09-22T09:36:45.895Z,18.42
2022-09-22T09:41:46.398Z,18.60
2022-09-22T09:46:47.674Z,18.85
2022-09-22T09:51:46.021Z,18.82
2022-09-22T09:56:45.770Z,18.88
2022-09-22T10:01:45.893Z,19.14
2022-09-22T10:06:45.660Z,19.22
2022-09-22T10:11:46.602Z,19.16
2022-09-22T10:16:45.610Z,19.43
2022-09-22T10:21:45.597Z,19.31
2022-09-22T10:26:45.567Z,19.36
2022-09-22T10:31:45.416Z,19.56
2022-09-22T10:36:45.338Z,19.63
2022-09-22T10:41:45.223Z,19.83
2022-09-22T10:46:45.263Z,19.68
2022-09-22T10:51:45.107Z,19.44
2022-09-22T10:56:45.045Z,18.95
2022-09-22T11:01:45.048Z,18.95
2022-09-22T11:06:44.926Z,19.36
2022-09-22T11:11:44.954Z,19.58
2022-09-22T11:16:44.841Z,19.78
2022-09-22T11:21:44.787Z,20.08
2022-09-22T11:26:44.861Z,20.14
2022-09-22T11:31:46.717Z,20.41
2022-09-22T11:36:48.038Z,20.41
2022-09-22T11:41:45.665Z,20.17
2022-09-22T11:46:44.606Z,20.14
2022-09-22T11:51:44.514Z,20.08
2022-09-22T11:56:44.452Z,19.78
2022-09-22T12:01:44.342Z,19.95
2022-09-22T12:06:44.300Z,19.86
2022-09-22T12:11:44.266Z,20.31
2022-09-22T12:16:44.228Z,20.35
2022-09-22T12:21:44.179Z,20.41
2022-09-22T12:26:44.094Z,20.33
2022-09-22T12:31:44.031Z,20.16
2022-09-22T12:36:44.076Z,20.11
2022-09-22T12:41:44.057Z,20.16
2022-09-22T12:46:43.961Z,20.32
2022-09-22T12:51:43.827Z,20.23
2022-09-22T12:56:43.857Z,20.18
2022-09-22T13:01:43.872Z,20.05
2022-09-22T13:06:43.744Z,20.05
2022-09-22T13:11:43.662Z,20.14
2022-09-22T13:16:43.821Z,20.10
2022-09-22T13:21:43.655Z,19.83
2022-09-22T13:26:43.876Z,19.76
2022-09-22T13:31:43.450Z,19.65
2022-09-22T13:36:43.340Z,19.73
2022-09-22T13:41:43.432Z,19.74
2022-09-22T13:46:43.273Z,19.37
2022-09-22T13:51:43.197Z,19.28
2022-09-22T13:56:43.335Z,19.19
2022-09-22T14:01:43.254Z,19.13
2022-09-22T14:06:43.279Z,19.00
2022-09-22T14:11:43.089Z,18.81
2022-09-22T14:16:43.165Z,18.76
2022-09-22T14:21:42.917Z,18.62
2022-09-22T14:26:42.880Z,18.48
2022-09-22T14:31:42.899Z,18.36
2022-09-22T14:36:42.851Z,18.27
2022-09-22T14:41:42.789Z,18.21
2022-09-22T14:46:42.680Z,18.21
2022-09-22T14:51:42.660Z,18.07
2022-09-22T14:56:42.537Z,17.96
2022-09-22T15:01:42.394Z,18.00
2022-09-22T15:06:42.165Z,17.92
2022-09-22T15:11:43.268Z,17.78
2022-09-22T15:16:42.269Z,17.95
2022-09-22T15:21:42.182Z,17.93
2022-09-22T15:26:42.281Z,17.81
2022-09-22T15:31:42.016Z,17.79
2022-09-22T15:36:41.824Z,17.64
2022-09-22T15:41:41.901Z,17.56
2022-09-22T15:46:42.130Z,17.37
2022-09-22T15:51:41.910Z,17.51
2022-09-22T15:56:41.884Z,17.49
2022-09-22T16:01:41.895Z,17.22
2022-09-22T16:06:42.116Z,17.28
2022-09-22T16:11:41.798Z,17.18
2022-09-22T16:16:41.772Z,17.00
2022-09-22T16:21:41.569Z,16.88
2022-09-22T16:26:41.519Z,16.81
2022-09-22T16:31:41.586Z,16.68
2022-09-22T16:36:41.382Z,16.68
2022-09-22T16:41:41.377Z,16.64
2022-09-22T16:46:41.439Z,16.52
2022-09-22T16:51:41.218Z,16.30
2022-09-22T16:56:41.278Z,15.97
2022-09-22T17:01:41.235Z,15.75
2022-09-22T17:06:41.121Z,15.51
2022-09-22T17:11:42.018Z,15.23
2022-09-22T17:16:41.113Z,15.01
2022-09-22T17:21:40.879Z,14.70
2022-09-22T17:26:40.962Z,14.54
2022-09-22T17:31:40.974Z,14.33
2022-09-22T17:36:40.791Z,14.15
2022-09-22T17:41:44.323Z,14.07
2022-09-22T17:46:40.773Z,13.96
2022-09-22T17:51:40.512Z,13.75
2022-09-22T17:56:40.525Z,13.54
2022-09-22T18:01:40.504Z,13.39
2022-09-22T18:06:40.366Z,13.12
2022-09-22T18:11:40.468Z,12.95
2022-09-22T18:16:40.315Z,12.79
2022-09-22T18:21:40.253Z,12.62
2022-09-22T18:26:40.260Z,12.45
2022-09-22T18:31:40.151Z,12.28
2022-09-22T18:36:40.088Z,12.13
2022-09-22T18:41:40.188Z,11.99
2022-09-22T18:46:40.112Z,11.85
2022-09-22T18:51:40.170Z,11.69
2022-09-22T18:56:40.023Z,11.57
2022-09-22T19:01:41.018Z,11.44
2022-09-22T19:06:40.784Z,11.35
2022-09-22T19:11:40.839Z,11.25
2022-09-22T19:16:39.622Z,11.09
2022-09-22T19:21:39.564Z,10.99
2022-09-22T19:26:39.508Z,10.91
2022-09-22T19:31:39.507Z,10.82
2022-09-22T19:36:39.505Z,10.70
2022-09-22T19:41:39.374Z,10.59
2022-09-22T19:46:39.317Z,10.53
2022-09-22T19:51:39.749Z,10.44
2022-09-22T19:56:40.205Z,10.33
2022-09-22T20:01:39.106Z,10.26
2022-09-22T20:06:39.077Z,10.17
2022-09-22T20:11:38.968Z,10.09
2022-09-22T20:16:38.936Z,10.04
2022-09-22T20:21:39.048Z,9.97
2022-09-22T20:26:38.916Z,9.90
2022-09-22T20:31:39.047Z,9.86
2022-09-22T20:36:39.724Z,9.76
2022-09-22T20:41:38.758Z,9.72
2022-09-22T20:46:38.737Z,9.68
2022-09-22T20:51:38.604Z,9.64
2022-09-22T20:56:42.597Z,9.61
2022-09-22T21:01:38.459Z,9.61
2022-09-22T21:06:38.467Z,9.60
2022-09-22T21:11:38.446Z,9.56
2022-09-22T21:16:38.268Z,9.58
2022-09-22T21:21:38.373Z,9.64
2022-09-22T21:26:38.152Z,9.47
2022-09-22T21:31:38.206Z,9.46
2022-09-22T21:36:38.112Z,9.47
2022-09-22T21:41:38.044Z,9.56
2022-09-22T21:46:38.040Z,9.58
2022-09-22T21:51:37.865Z,9.66
2022-09-22T21:56:38.966Z,9.68
2022-09-22T22:01:39.924Z,9.48
2022-09-22T22:06:37.933Z,9.33
2022-09-22T22:11:37.890Z,9.29
2022-09-22T22:16:38.640Z,9.35
2022-09-22T22:21:37.629Z,9.42
2022-09-22T22:26:37.642Z,9.39
2022-09-22T22:31:37.606Z,9.21
2022-09-22T22:36:37.527Z,9.20
2022-09-22T22:41:37.423Z,9.23
2022-09-22T22:46:37.475Z,9.17
2022-09-22T22:51:37.360Z,9.26
2022-09-22T22:56:41.533Z,9.39
2022-09-22T23:01:38.283Z,9.40
2022-09-22T23:06:37.126Z,9.36
2022-09-22T23:11:37.005Z,9.31
2022-09-22T23:16:36.962Z,9.21
2022-09-22T23:21:36.978Z,9.24
2022-09-22T23:26:36.800Z,9.15
2022-09-22T23:31:36.747Z,9.05
2022-09-22T23:36:36.957Z,9.02
2022-09-22T23:41:37.754Z,9.04
2022-09-22T23:46:36.710Z,9.10
2022-09-22T23:51:36.698Z,9.15
2022-09-22T23:56:36.581Z,9.13
